sensor_id;sensor_type;location;lat;lon;timestamp;P1;durP1;ratioP1;P2;durP2;ratioP2
10473;SDS011;5284;50.446;7.904;2022-11-15T00:03:57;30.60;;;17.92;;
10473;SDS011;5284;50.446;7.904;2022-11-15T00:09:20;36.40;;;17.42;;
10473;SDS011;5284;50.446;7.904;2022-11-15T00:14:42;32.42;;;16.52;;
10473;SDS011;5284;50.446;7.904;2022-11-15T00:20:03;32.13;;;16.27;;
10473;SDS011;5284;50.446;7.904;2022-11-15T00:25:26;33.30;;;16.05;;
10473;SDS011;5284;50.446;7.904;2022-11-15T00:30:48;35.53;;;15.77;;
10473;SDS011;5284;50.446;7.904;2022-11-15T00:36:09;28.60;;;17.05;;
10473;SDS011;5284;50.446;7.904;2022-11-15T00:41:32;24.17;;;15.70;;
10473;SDS011;5284;50.446;7.904;2022-11-15T00:46:54;31.60;;;16.25;;
10473;SDS011;5284;50.446;7.904;2022-11-15T00:52:15;30.75;;;16.13;;
10473;SDS011;5284;50.446;7.904;2022-11-15T00:57:38;26.35;;;14.80;;
10473;SDS011;5284;50.446;7.904;2022-11-15T01:08:46;30.13;;;16.45;;
10473;SDS011;5284;50.446;7.904;2022-11-15T01:14:09;33.67;;;16.25;;
10473;SDS011;5284;50.446;7.904;2022-11-15T01:19:31;29.02;;;14.85;;
10473;SDS011;5284;50.446;7.904;2022-11-15T01:24:52;37.10;;;15.38;;
10473;SDS011;5284;50.446;7.904;2022-11-15T01:30:16;32.22;;;16.30;;
10473;SDS011;5284;50.446;7.904;2022-11-15T01:35:38;39.00;;;17.77;;
10473;SDS011;5284;50.446;7.904;2022-11-15T01:41:00;42.80;;;16.65;;
10473;SDS011;5284;50.446;7.904;2022-11-15T01:46:25;28.23;;;15.15;;
10473;SDS011;5284;50.446;7.904;2022-11-15T01:51:50;26.83;;;15.23;;
10473;SDS011;5284;50.446;7.904;2022-11-15T01:57:12;29.52;;;16.45;;
10473;SDS011;5284;50.446;7.904;2022-11-15T02:02:36;23.88;;;13.85;;
10473;SDS011;5284;50.446;7.904;2022-11-15T02:07:59;28.35;;;15.20;;
10473;SDS011;5284;50.446;7.904;2022-11-15T02:13:21;35.15;;;16.98;;
10473;SDS011;5284;50.446;7.904;2022-11-15T02:18:46;38.40;;;19.10;;
10473;SDS011;5284;50.446;7.904;2022-11-15T02:30:17;27.63;;;13.63;;
10473;SDS011;5284;50.446;7.904;2022-11-15T02:35:42;23.50;;;14.02;;
10473;SDS011;5284;50.446;7.904;2022-11-15T02:41:09;28.48;;;14.13;;
10473;SDS011;5284;50.446;7.904;2022-11-15T02:46:36;27.20;;;14.47;;
10473;SDS011;5284;50.446;7.904;2022-11-15T02:52:20;25.05;;;12.82;;
10473;SDS011;5284;50.446;7.904;2022-11-15T02:57:44;27.60;;;14.20;;
10473;SDS011;5284;50.446;7.904;2022-11-15T03:03:19;24.58;;;12.48;;
10473;SDS011;5284;50.446;7.904;2022-11-15T03:09:05;20.70;;;12.68;;
10473;SDS011;5284;50.446;7.904;2022-11-15T03:14:32;24.93;;;11.60;;
10473;SDS011;5284;50.446;7.904;2022-11-15T03:19:59;26.10;;;11.75;;
10473;SDS011;5284;50.446;7.904;2022-11-15T03:25:22;19.25;;;10.00;;
10473;SDS011;5284;50.446;7.904;2022-11-15T03:30:46;16.45;;;9.27;;
10473;SDS011;5284;50.446;7.904;2022-11-15T03:36:11;22.67;;;10.25;;
10473;SDS011;5284;50.446;7.904;2022-11-15T03:41:35;14.45;;;8.43;;
10473;SDS011;5284;50.446;7.904;2022-11-15T03:47:01;16.33;;;9.30;;
10473;SDS011;5284;50.446;7.904;2022-11-15T03:52:30;17.38;;;9.27;;
10473;SDS011;5284;50.446;7.904;2022-11-15T03:57:54;14.00;;;7.38;;
10473;SDS011;5284;50.446;7.904;2022-11-15T04:03:18;9.40;;;6.03;;
10473;SDS011;5284;50.446;7.904;2022-11-15T04:08:40;10.88;;;7.32;;
10473;SDS011;5284;50.446;7.904;2022-11-15T04:14:02;9.35;;;5.85;;
10473;SDS011;5284;50.446;7.904;2022-11-15T04:19:23;6.97;;;4.93;;
10473;SDS011;5284;50.446;7.904;2022-11-15T04:25:04;11.38;;;5.25;;
10473;SDS011;5284;50.446;7.904;2022-11-15T04:30:26;10.55;;;5.95;;
10473;SDS011;5284;50.446;7.904;2022-11-15T04:35:48;13.10;;;7.35;;
10473;SDS011;5284;50.446;7.904;2022-11-15T04:41:25;15.77;;;7.70;;
10473;SDS011;5284;50.446;7.904;2022-11-15T04:46:46;12.95;;;7.93;;
10473;SDS011;5284;50.446;7.904;2022-11-15T04:52:08;13.73;;;7.78;;
10473;SDS011;5284;50.446;7.904;2022-11-15T04:57:31;16.50;;;8.23;;
10473;SDS011;5284;50.446;7.904;2022-11-15T05:02:52;13.98;;;6.20;;
10473;SDS011;5284;50.446;7.904;2022-11-15T05:08:32;12.88;;;7.03;;
10473;SDS011;5284;50.446;7.904;2022-11-15T05:13:55;10.00;;;6.50;;
10473;SDS011;5284;50.446;7.904;2022-11-15T05:19:16;13.13;;;6.68;;
10473;SDS011;5284;50.446;7.904;2022-11-15T05:24:38;9.80;;;5.88;;
10473;SDS011;5284;50.446;7.904;2022-11-15T05:30:01;13.68;;;7.15;;
10473;SDS011;5284;50.446;7.904;2022-11-15T05:35:25;11.55;;;6.32;;
10473;SDS011;5284;50.446;7.904;2022-11-15T05:40:51;17.13;;;6.60;;
10473;SDS011;5284;50.446;7.904;2022-11-15T05:46:14;14.85;;;7.00;;
10473;SDS011;5284;50.446;7.904;2022-11-15T05:51:36;9.63;;;5.97;;
10473;SDS011;5284;50.446;7.904;2022-11-15T05:56:58;15.00;;;6.43;;
10473;SDS011;5284;50.446;7.904;2022-11-15T06:02:21;11.05;;;6.72;;
10473;SDS011;5284;50.446;7.904;2022-11-15T06:07:43;13.35;;;7.35;;
10473;SDS011;5284;50.446;7.904;2022-11-15T06:13:05;16.17;;;8.95;;
10473;SDS011;5284;50.446;7.904;2022-11-15T06:18:28;16.08;;;8.35;;
10473;SDS011;5284;50.446;7.904;2022-11-15T06:23:52;18.83;;;8.50;;
10473;SDS011;5284;50.446;7.904;2022-11-15T06:29:14;18.92;;;9.68;;
10473;SDS011;5284;50.446;7.904;2022-11-15T06:34:37;22.13;;;11.05;;
10473;SDS011;5284;50.446;7.904;2022-11-15T06:39:59;21.27;;;10.38;;
10473;SDS011;5284;50.446;7.904;2022-11-15T06:45:20;30.15;;;12.02;;
10473;SDS011;5284;50.446;7.904;2022-11-15T06:50:43;29.58;;;13.50;;
10473;SDS011;5284;50.446;7.904;2022-11-15T06:56:11;24.15;;;13.10;;
10473;SDS011;5284;50.446;7.904;2022-11-15T07:01:33;26.13;;;12.27;;
10473;SDS011;5284;50.446;7.904;2022-11-15T07:06:56;28.23;;;14.82;;
10473;SDS011;5284;50.446;7.904;2022-11-15T07:12:17;24.88;;;13.10;;
10473;SDS011;5284;50.446;7.904;2022-11-15T07:17:39;21.95;;;13.00;;
10473;SDS011;5284;50.446;7.904;2022-11-15T07:23:03;22.85;;;12.48;;
10473;SDS011;5284;50.446;7.904;2022-11-15T07:28:26;33.80;;;20.52;;
10473;SDS011;5284;50.446;7.904;2022-11-15T07:33:48;29.00;;;12.35;;
10473;SDS011;5284;50.446;7.904;2022-11-15T07:39:11;19.20;;;12.45;;
10473;SDS011;5284;50.446;7.904;2022-11-15T07:44:34;22.75;;;10.98;;
10473;SDS011;5284;50.446;7.904;2022-11-15T07:49:55;17.27;;;8.73;;
10473;SDS011;5284;50.446;7.904;2022-11-15T07:55:18;16.40;;;9.02;;
10473;SDS011;5284;50.446;7.904;2022-11-15T08:00:40;16.13;;;8.57;;
10473;SDS011;5284;50.446;7.904;2022-11-15T08:06:03;14.57;;;7.82;;
10473;SDS011;5284;50.446;7.904;2022-11-15T08:11:27;19.27;;;9.80;;
10473;SDS011;5284;50.446;7.904;2022-11-15T08:16:48;22.92;;;11.30;;
10473;SDS011;5284;50.446;7.904;2022-11-15T08:22:10;17.83;;;9.07;;
10473;SDS011;5284;50.446;7.904;2022-11-15T08:27:33;12.38;;;8.20;;
10473;SDS011;5284;50.446;7.904;2022-11-15T08:32:56;19.13;;;8.45;;
10473;SDS011;5284;50.446;7.904;2022-11-15T08:38:19;21.17;;;9.02;;
10473;SDS011;5284;50.446;7.904;2022-11-15T08:43:42;20.45;;;9.13;;
10473;SDS011;5284;50.446;7.904;2022-11-15T08:49:03;18.83;;;8.18;;
10473;SDS011;5284;50.446;7.904;2022-11-15T08:54:25;14.30;;;8.77;;
10473;SDS011;5284;50.446;7.904;2022-11-15T08:59:48;17.65;;;9.48;;
10473;SDS011;5284;50.446;7.904;2022-11-15T09:05:09;20.35;;;10.00;;
10473;SDS011;5284;50.446;7.904;2022-11-15T09:10:31;14.40;;;8.80;;
10473;SDS011;5284;50.446;7.904;2022-11-15T09:15:56;14.90;;;9.25;;
10473;SDS011;5284;50.446;7.904;2022-11-15T09:21:18;14.40;;;8.77;;
10473;SDS011;5284;50.446;7.904;2022-11-15T09:26:42;14.25;;;7.35;;
10473;SDS011;5284;50.446;7.904;2022-11-15T09:32:05;18.98;;;9.90;;
10473;SDS011;5284;50.446;7.904;2022-11-15T09:37:27;13.52;;;5.68;;
10473;SDS011;5284;50.446;7.904;2022-11-15T09:42:52;15.13;;;9.63;;
10473;SDS011;5284;50.446;7.904;2022-11-15T09:54:11;17.65;;;9.05;;
10473;SDS011;5284;50.446;7.904;2022-11-15T09:59:47;54.08;;;22.90;;
10473;SDS011;5284;50.446;7.904;2022-11-15T10:04:57;13.52;;;6.80;;
10473;SDS011;5284;50.446;7.904;2022-11-15T10:10:02;13.85;;;8.35;;
10473;SDS011;5284;50.446;7.904;2022-11-15T10:15:15;8.20;;;4.47;;
10473;SDS011;5284;50.446;7.904;2022-11-15T10:20:26;12.85;;;7.53;;
10473;SDS011;5284;50.446;7.904;2022-11-15T10:25:31;10.88;;;7.47;;
10473;SDS011;5284;50.446;7.904;2022-11-15T10:30:36;10.18;;;6.22;;
10473;SDS011;5284;50.446;7.904;2022-11-15T10:35:42;9.73;;;6.53;;
10473;SDS011;5284;50.446;7.904;2022-11-15T10:40:45;19.25;;;6.25;;
10473;SDS011;5284;50.446;7.904;2022-11-15T10:45:48;13.00;;;6.78;;
10473;SDS011;5284;50.446;7.904;2022-11-15T10:50:53;15.13;;;8.55;;
10473;SDS011;5284;50.446;7.904;2022-11-15T10:55:59;20.98;;;8.18;;
10473;SDS011;5284;50.446;7.904;2022-11-15T11:01:08;12.15;;;5.50;;
10473;SDS011;5284;50.446;7.904;2022-11-15T11:06:18;18.27;;;9.65;;
10473;SDS011;5284;50.446;7.904;2022-11-15T11:11:20;14.25;;;6.65;;
10473;SDS011;5284;50.446;7.904;2022-11-15T11:16:32;7.65;;;5.22;;
10473;SDS011;5284;50.446;7.904;2022-11-15T11:26:57;9.90;;;5.90;;
10473;SDS011;5284;50.446;7.904;2022-11-15T11:32:18;9.80;;;4.43;;
10473;SDS011;5284;50.446;7.904;2022-11-15T11:37:32;18.73;;;5.45;;
10473;SDS011;5284;50.446;7.904;2022-11-15T11:42:43;6.82;;;3.70;;
10473;SDS011;5284;50.446;7.904;2022-11-15T11:47:56;13.65;;;4.35;;
10473;SDS011;5284;50.446;7.904;2022-11-15T11:53:12;7.72;;;4.40;;
10473;SDS011;5284;50.446;7.904;2022-11-15T11:58:19;5.47;;;2.88;;
10473;SDS011;5284;50.446;7.904;2022-11-15T12:03:29;6.40;;;3.33;;
10473;SDS011;5284;50.446;7.904;2022-11-15T12:08:41;6.07;;;2.92;;
10473;SDS011;5284;50.446;7.904;2022-11-15T12:13:49;10.07;;;2.85;;
10473;SDS011;5284;50.446;7.904;2022-11-15T12:18:59;11.38;;;3.20;;
10473;SDS011;5284;50.446;7.904;2022-11-15T12:24:06;6.40;;;3.28;;
10473;SDS011;5284;50.446;7.904;2022-11-15T12:29:15;8.18;;;2.90;;
10473;SDS011;5284;50.446;7.904;2022-11-15T12:34:35;5.75;;;2.70;;
10473;SDS011;5284;50.446;7.904;2022-11-15T12:45:25;5.07;;;2.35;;
10473;SDS011;5284;50.446;7.904;2022-11-15T12:50:52;6.38;;;2.65;;
10473;SDS011;5284;50.446;7.904;2022-11-15T12:56:16;11.32;;;3.33;;
10473;SDS011;5284;50.446;7.904;2022-11-15T13:07:03;3.33;;;1.83;;
10473;SDS011;5284;50.446;7.904;2022-11-15T13:12:10;8.40;;;3.57;;
10473;SDS011;5284;50.446;7.904;2022-11-15T13:17:36;9.45;;;2.47;;
10473;SDS011;5284;50.446;7.904;2022-11-15T13:22:42;7.07;;;2.53;;
10473;SDS011;5284;50.446;7.904;2022-11-15T13:27:54;5.63;;;2.22;;
10473;SDS011;5284;50.446;7.904;2022-11-15T13:33:07;15.27;;;4.82;;
10473;SDS011;5284;50.446;7.904;2022-11-15T13:38:17;17.50;;;7.30;;
10473;SDS011;5284;50.446;7.904;2022-11-15T13:43:34;7.60;;;4.03;;
10473;SDS011;5284;50.446;7.904;2022-11-15T13:48:37;11.95;;;4.72;;
10473;SDS011;5284;50.446;7.904;2022-11-15T13:53:42;11.75;;;5.78;;
10473;SDS011;5284;50.446;7.904;2022-11-15T13:58:50;12.60;;;6.22;;
10473;SDS011;5284;50.446;7.904;2022-11-15T14:03:54;24.73;;;10.15;;
10473;SDS011;5284;50.446;7.904;2022-11-15T14:09:18;8.23;;;5.07;;
10473;SDS011;5284;50.446;7.904;2022-11-15T14:14:33;15.63;;;8.38;;
10473;SDS011;5284;50.446;7.904;2022-11-15T14:19:48;10.77;;;6.38;;
10473;SDS011;5284;50.446;7.904;2022-11-15T14:30:21;11.98;;;5.47;;
10473;SDS011;5284;50.446;7.904;2022-11-15T14:35:25;11.95;;;5.85;;
10473;SDS011;5284;50.446;7.904;2022-11-15T14:40:28;10.68;;;5.95;;
10473;SDS011;5284;50.446;7.904;2022-11-15T14:45:34;9.80;;;4.78;;
10473;SDS011;5284;50.446;7.904;2022-11-15T14:50:38;8.65;;;4.55;;
10473;SDS011;5284;50.446;7.904;2022-11-15T14:55:41;8.30;;;5.72;;
10473;SDS011;5284;50.446;7.904;2022-11-15T15:00:45;13.32;;;5.82;;
10473;SDS011;5284;50.446;7.904;2022-11-15T15:05:48;17.73;;;7.13;;
10473;SDS011;5284;50.446;7.904;2022-11-15T15:10:52;11.27;;;6.97;;
10473;SDS011;5284;50.446;7.904;2022-11-15T15:15:58;18.08;;;7.07;;
10473;SDS011;5284;50.446;7.904;2022-11-15T15:21:01;13.60;;;8.02;;
10473;SDS011;5284;50.446;7.904;2022-11-15T15:31:12;15.52;;;8.23;;
10473;SDS011;5284;50.446;7.904;2022-11-15T15:36:17;13.02;;;7.78;;
10473;SDS011;5284;50.446;7.904;2022-11-15T15:41:21;42.67;;;12.30;;
10473;SDS011;5284;50.446;7.904;2022-11-15T15:46:25;20.23;;;9.57;;
10473;SDS011;5284;50.446;7.904;2022-11-15T15:51:28;59.60;;;17.60;;
10473;SDS011;5284;50.446;7.904;2022-11-15T15:56:30;24.13;;;9.65;;
10473;SDS011;5284;50.446;7.904;2022-11-15T16:01:35;16.58;;;9.10;;
10473;SDS011;5284;50.446;7.904;2022-11-15T16:06:38;22.42;;;9.90;;
10473;SDS011;5284;50.446;7.904;2022-11-15T16:11:45;18.90;;;9.40;;
10473;SDS011;5284;50.446;7.904;2022-11-15T16:16:50;68.18;;;40.47;;
10473;SDS011;5284;50.446;7.904;2022-11-15T16:21:53;12.98;;;9.32;;
10473;SDS011;5284;50.446;7.904;2022-11-15T16:26:56;36.13;;;12.57;;
10473;SDS011;5284;50.446;7.904;2022-11-15T16:32:00;26.45;;;11.93;;
10473;SDS011;5284;50.446;7.904;2022-11-15T16:37:03;20.70;;;9.43;;
10473;SDS011;5284;50.446;7.904;2022-11-15T16:42:07;17.92;;;9.65;;
10473;SDS011;5284;50.446;7.904;2022-11-15T16:47:15;20.17;;;11.38;;
10473;SDS011;5284;50.446;7.904;2022-11-15T16:52:19;39.67;;;19.98;;
10473;SDS011;5284;50.446;7.904;2022-11-15T16:57:22;24.60;;;11.18;;
10473;SDS011;5284;50.446;7.904;2022-11-15T17:02:27;34.95;;;13.90;;
10473;SDS011;5284;50.446;7.904;2022-11-15T17:07:30;24.02;;;12.55;;
10473;SDS011;5284;50.446;7.904;2022-11-15T17:12:33;36.58;;;14.68;;
10473;SDS011;5284;50.446;7.904;2022-11-15T17:17:38;49.40;;;19.65;;
10473;SDS011;5284;50.446;7.904;2022-11-15T17:22:41;28.23;;;10.88;;
10473;SDS011;5284;50.446;7.904;2022-11-15T17:27:45;23.25;;;11.00;;
10473;SDS011;5284;50.446;7.904;2022-11-15T17:32:50;45.80;;;14.68;;
10473;SDS011;5284;50.446;7.904;2022-11-15T17:37:53;44.45;;;8.88;;
10473;SDS011;5284;50.446;7.904;2022-11-15T17:42:56;22.65;;;7.95;;
10473;SDS011;5284;50.446;7.904;2022-11-15T17:48:00;20.38;;;8.68;;
10473;SDS011;5284;50.446;7.904;2022-11-15T17:53:03;14.45;;;6.53;;
10473;SDS011;5284;50.446;7.904;2022-11-15T17:58:06;17.67;;;6.75;;
10473;SDS011;5284;50.446;7.904;2022-11-15T18:03:10;18.77;;;7.57;;
10473;SDS011;5284;50.446;7.904;2022-11-15T18:08:14;20.70;;;8.85;;
10473;SDS011;5284;50.446;7.904;2022-11-15T18:13:17;19.20;;;8.77;;
10473;SDS011;5284;50.446;7.904;2022-11-15T18:18:22;13.07;;;7.57;;
10473;SDS011;5284;50.446;7.904;2022-11-15T18:23:24;9.07;;;5.88;;
10473;SDS011;5284;50.446;7.904;2022-11-15T18:28:28;11.75;;;6.38;;
10473;SDS011;5284;50.446;7.904;2022-11-15T18:33:34;14.00;;;6.88;;
10473;SDS011;5284;50.446;7.904;2022-11-15T18:38:37;15.25;;;5.95;;
10473;SDS011;5284;50.446;7.904;2022-11-15T18:43:40;13.52;;;6.95;;
10473;SDS011;5284;50.446;7.904;2022-11-15T18:48:45;13.25;;;6.18;;
10473;SDS011;5284;50.446;7.904;2022-11-15T18:53:51;23.95;;;6.13;;
10473;SDS011;5284;50.446;7.904;2022-11-15T18:58:55;13.88;;;6.03;;
10473;SDS011;5284;50.446;7.904;2022-11-15T19:04:03;19.92;;;7.47;;
10473;SDS011;5284;50.446;7.904;2022-11-15T19:09:08;49.65;;;8.40;;
10473;SDS011;5284;50.446;7.904;2022-11-15T19:14:15;51.83;;;7.55;;
10473;SDS011;5284;50.446;7.904;2022-11-15T19:19:21;59.17;;;7.53;;
10473;SDS011;5284;50.446;7.904;2022-11-15T19:24:28;77.38;;;7.78;;
10473;SDS011;5284;50.446;7.904;2022-11-15T19:29:30;22.38;;;8.02;;
10473;SDS011;5284;50.446;7.904;2022-11-15T19:34:34;31.13;;;9.10;;
10473;SDS011;5284;50.446;7.904;2022-11-15T19:39:37;33.20;;;9.18;;
10473;SDS011;5284;50.446;7.904;2022-11-15T19:44:41;26.98;;;9.40;;
10473;SDS011;5284;50.446;7.904;2022-11-15T19:49:46;39.22;;;15.70;;
10473;SDS011;5284;50.446;7.904;2022-11-15T19:54:49;45.42;;;14.00;;
10473;SDS011;5284;50.446;7.904;2022-11-15T19:59:52;23.50;;;11.10;;
10473;SDS011;5284;50.446;7.904;2022-11-15T20:04:56;29.75;;;13.25;;
10473;SDS011;5284;50.446;7.904;2022-11-15T20:09:59;22.75;;;11.05;;
10473;SDS011;5284;50.446;7.904;2022-11-15T20:15:02;19.88;;;10.25;;
10473;SDS011;5284;50.446;7.904;2022-11-15T20:20:07;41.28;;;16.88;;
10473;SDS011;5284;50.446;7.904;2022-11-15T20:25:11;38.57;;;19.10;;
10473;SDS011;5284;50.446;7.904;2022-11-15T20:30:15;22.25;;;9.05;;
10473;SDS011;5284;50.446;7.904;2022-11-15T20:35:20;25.35;;;10.93;;
10473;SDS011;5284;50.446;7.904;2022-11-15T20:40:23;14.73;;;7.57;;
10473;SDS011;5284;50.446;7.904;2022-11-15T20:45:26;19.98;;;7.75;;
10473;SDS011;5284;50.446;7.904;2022-11-15T20:50:30;16.45;;;7.53;;
10473;SDS011;5284;50.446;7.904;2022-11-15T20:55:44;21.05;;;8.30;;
10473;SDS011;5284;50.446;7.904;2022-11-15T21:00:48;11.88;;;6.13;;
10473;SDS011;5284;50.446;7.904;2022-11-15T21:05:53;15.77;;;5.95;;
10473;SDS011;5284;50.446;7.904;2022-11-15T21:10:56;18.48;;;6.40;;
10473;SDS011;5284;50.446;7.904;2022-11-15T21:16:16;13.95;;;6.20;;
10473;SDS011;5284;50.446;7.904;2022-11-15T21:21:20;18.98;;;9.68;;
10473;SDS011;5284;50.446;7.904;2022-11-15T21:26:23;23.48;;;8.93;;
10473;SDS011;5284;50.446;7.904;2022-11-15T21:31:26;13.82;;;6.40;;
10473;SDS011;5284;50.446;7.904;2022-11-15T21:36:30;12.85;;;6.30;;
10473;SDS011;5284;50.446;7.904;2022-11-15T21:41:33;19.90;;;9.00;;
10473;SDS011;5284;50.446;7.904;2022-11-15T21:46:36;22.75;;;6.93;;
10473;SDS011;5284;50.446;7.904;2022-11-15T21:51:40;16.65;;;6.82;;
10473;SDS011;5284;50.446;7.904;2022-11-15T21:56:43;18.60;;;7.03;;
10473;SDS011;5284;50.446;7.904;2022-11-15T22:01:46;14.60;;;7.00;;
10473;SDS011;5284;50.446;7.904;2022-11-15T22:07:08;13.93;;;6.68;;
10473;SDS011;5284;50.446;7.904;2022-11-15T22:12:11;18.45;;;6.60;;
10473;SDS011;5284;50.446;7.904;2022-11-15T22:17:13;12.27;;;6.30;;
10473;SDS011;5284;50.446;7.904;2022-11-15T22:22:18;16.13;;;6.50;;
10473;SDS011;5284;50.446;7.904;2022-11-15T22:27:20;10.05;;;6.72;;
10473;SDS011;5284;50.446;7.904;2022-11-15T22:32:23;15.73;;;6.72;;
10473;SDS011;5284;50.446;7.904;2022-11-15T22:37:28;13.98;;;6.80;;
10473;SDS011;5284;50.446;7.904;2022-11-15T22:42:31;9.80;;;6.20;;
10473;SDS011;5284;50.446;7.904;2022-11-15T22:47:34;11.10;;;5.80;;
10473;SDS011;5284;50.446;7.904;2022-11-15T22:52:38;11.65;;;7.00;;
10473;SDS011;5284;50.446;7.904;2022-11-15T22:57:41;12.20;;;5.72;;
10473;SDS011;5284;50.446;7.904;2022-11-15T23:02:44;13.40;;;6.10;;
10473;SDS011;5284;50.446;7.904;2022-11-15T23:07:53;15.98;;;6.93;;
10473;SDS011;5284;50.446;7.904;2022-11-15T23:13:01;16.70;;;6.85;;
10473;SDS011;5284;50.446;7.904;2022-11-15T23:18:19;20.67;;;7.85;;
10473;SDS011;5284;50.446;7.904;2022-11-15T23:23:23;12.15;;;6.60;;
10473;SDS011;5284;50.446;7.904;2022-11-15T23:28:26;21.63;;;7.95;;
10473;SDS011;5284;50.446;7.904;2022-11-15T23:33:29;15.70;;;7.85;;
10473;SDS011;5284;50.446;7.904;2022-11-15T23:38:51;13.95;;;7.25;;
10473;SDS011;5284;50.446;7.904;2022-11-15T23:43:54;15.48;;;7.30;;
10473;SDS011;5284;50.446;7.904;2022-11-15T23:48:57;14.15;;;7.45;;
10473;SDS011;5284;50.446;7.904;2022-11-15T23:54:01;11.32;;;7.47;;
10473;SDS011;5284;50.446;7.904;2022-11-15T23:59:05;16.52;;;8.18;;
